Time;durP1;ratioP1;P1;durP2;ratioP2;P2;SDS_P1;SDS_P2;PMS_P1;PMS_P2;Temp;Humidity;BMP_temperature;BMP_pressure;BME280_temperature;BME280_humidity;BME280_pressure;Samples;Min_cycle;Max_cycle;Signal;HPM_P1;HPM_P2
2022/06/11 00:01:21;;;;;;;;;;;;;;;15.02;100.00;99420.22;4225600;34;19987;-73
2022/06/11 00:03:49;;;;;;;;;;;;;;;14.96;100.00;99421.28;4245092;33;19963;-73
2022/06/11 00:06:15;;;;;;;;;;;;;;;14.95;100.00;99423.19;4246259;33;19949;-73
2022/06/11 00:08:43;;;;;;;;;;;;;;;14.94;100.00;99415.31;4252424;33;19953;-73
2022/06/11 00:11:10;;;;;;;;;;;;;;;14.93;100.00;99425.34;4234018;33;19938;-73
2022/06/11 00:13:37;;;;;;;;;;;;;;;14.92;100.00;99422.91;4251137;33;20373;-73
2022/06/11 00:16:03;;;;;;;;;;;;;;;14.93;100.00;99413.69;4250879;33;19986;-73
2022/06/11 00:18:30;;;;;;;;;;;;;;;14.92;100.00;99417.47;4238194;33;19945;-73
2022/06/11 00:20:56;;;;;;;;;;;;;;;14.89;100.00;99416.94;4240439;33;19958;-73
2022/06/11 00:23:22;;;;;;;;;;;;;;;14.89;100.00;99419.66;4224325;33;20379;-73
2022/06/11 00:25:49;;;;;;;;;;;;;;;14.91;100.00;99419.38;4234187;33;19959;-73
2022/06/11 00:28:15;;;;;;;;;;;;;;;14.87;100.00;99416.41;4250147;33;19945;-73
2022/06/11 00:30:41;;;;;;;;;;;;;;;14.82;100.00;99419.09;4252269;33;20370;-73
2022/06/11 00:33:08;;;;;;;;;;;;;;;14.79;100.00;99424.22;4252529;33;19949;-73
2022/06/11 00:35:35;;;;;;;;;;;;;;;14.74;100.00;99425.03;4240458;33;19994;-74
2022/06/11 00:38:02;;;;;;;;;;;;;;;14.76;100.00;99422.88;4240213;33;19953;-73
2022/06/11 00:40:29;;;;;;;;;;;;;;;14.80;100.00;99432.09;4237320;33;20274;-73
2022/06/11 00:42:55;;;;;;;;;;;;;;;14.82;100.00;99424.53;4245311;33;19961;-73
2022/06/11 00:45:31;;;;;;;;;;;;;;;14.83;100.00;99428.03;4240155;33;19953;-73
2022/06/11 00:48:00;;;;;;;;;;;;;;;14.83;100.00;99436.97;4251352;33;20020;-73
2022/06/11 00:50:31;;;;;;;;;;;;;;;14.77;100.00;99427.19;4237141;33;19945;-73
2022/06/11 00:52:58;;;;;;;;;;;;;;;14.52;100.00;99431.44;4243813;33;19950;-73
2022/06/11 00:55:27;;;;;;;;;;;;;;;14.32;100.00;99434.09;4251538;33;19998;-73
2022/06/11 00:57:56;;;;;;;;;;;;;;;14.23;100.00;99438.38;4252661;33;19955;-73
2022/06/11 01:00:30;;;;;;;;;;;;;;;14.25;100.00;99436.19;4241260;33;20499;-73
2022/06/11 01:02:57;;;;;;;;;;;;;;;14.32;100.00;99432.19;4238195;33;20343;-73
2022/06/11 01:05:26;;;;;;;;;;;;;;;14.39;100.00;99436.53;4238950;33;19949;-73
2022/06/11 01:08:11;;;;;;;;;;;;;;;14.43;100.00;99433.03;4240421;33;20050;-73
2022/06/11 01:10:40;;;;;;;;;;;;;;;14.47;100.00;99434.16;4238164;33;19987;-73
2022/06/11 01:13:30;;;;;;;;;;;;;;;14.48;100.00;99430.34;4237948;33;19963;-73
2022/06/11 01:16:00;;;;;;;;;;;;;;;14.40;100.00;99428.16;4249889;33;19954;-73
2022/06/11 01:18:52;;;;;;;;;;;;;;;14.35;100.00;99430.84;4252062;33;19949;-73
2022/06/11 01:21:36;;;;;;;;;;;;;;;14.35;100.00;99428.13;4235969;33;19960;-73
2022/06/11 01:24:22;;;;;;;;;;;;;;;14.27;100.00;99432.16;4250813;33;19954;-73
2022/06/11 01:27:14;;;;;;;;;;;;;;;14.20;100.00;99428.91;4255248;33;19944;-73
2022/06/11 01:29:52;;;;;;;;;;;;;;;14.05;100.00;99432.31;4227303;33;19953;-73
2022/06/11 01:32:18;;;;;;;;;;;;;;;13.98;100.00;99426.34;4240707;33;20337;-73
2022/06/11 01:35:00;;;;;;;;;;;;;;;14.02;100.00;99437.44;4239718;33;20003;-73
2022/06/11 01:37:34;;;;;;;;;;;;;;;14.05;100.00;99432.31;4241300;33;19950;-73
2022/06/11 01:40:04;;;;;;;;;;;;;;;13.98;100.00;99431.75;4240025;33;20303;-73
2022/06/11 01:42:46;;;;;;;;;;;;;;;13.98;100.00;99429.06;4241491;33;19987;-73
2022/06/11 01:45:27;;;;;;;;;;;;;;;13.97;100.00;99425.50;4241242;33;19956;-73
2022/06/11 01:47:54;;;;;;;;;;;;;;;13.95;100.00;99426.88;4240205;33;20386;-73
2022/06/11 01:50:22;;;;;;;;;;;;;;;13.84;100.00;99436.00;4241499;33;19956;-73
2022/06/11 01:52:58;;;;;;;;;;;;;;;13.77;100.00;99431.63;4241018;33;19945;-73
2022/06/11 01:55:34;;;;;;;;;;;;;;;13.77;100.00;99431.63;4240357;33;19984;-73
2022/06/11 01:58:03;;;;;;;;;;;;;;;13.71;100.00;99432.66;4227893;33;19996;-73
2022/06/11 02:00:32;;;;;;;;;;;;;;;13.67;100.00;99436.16;4237340;33;20007;-73
2022/06/11 02:03:09;;;;;;;;;;;;;;;13.72;100.00;99431.59;4239416;33;19946;-73
2022/06/11 02:05:41;;;;;;;;;;;;;;;13.75;100.00;99428.38;4240217;33;20361;-73
2022/06/11 02:08:07;;;;;;;;;;;;;;;13.74;100.00;99434.06;4249820;33;19945;-73
2022/06/11 02:10:37;;;;;;;;;;;;;;;13.73;100.00;99425.09;4240927;33;19984;-73
2022/06/11 02:13:17;;;;;;;;;;;;;;;13.71;100.00;99426.44;4239482;33;19949;-73
2022/06/11 02:15:49;;;;;;;;;;;;;;;13.66;100.00;99413.69;4243005;33;20848;-74
2022/06/11 02:18:19;;;;;;;;;;;;;;;13.61;100.00;99417.19;4240486;33;20373;-73
2022/06/11 02:20:51;;;;;;;;;;;;;;;13.61;100.00;99416.38;4252056;33;19980;-73
2022/06/11 02:23:19;;;;;;;;;;;;;;;13.61;100.00;99416.38;4252981;33;19963;-73
2022/06/11 02:25:54;;;;;;;;;;;;;;;13.67;100.00;99420.72;4231466;33;19945;-73
2022/06/11 02:28:22;;;;;;;;;;;;;;;13.69;100.00;99413.19;4240205;33;19956;-73
2022/06/11 02:30:49;;;;;;;;;;;;;;;13.71;100.00;99421.84;4240725;33;19955;-73
2022/06/11 02:33:16;;;;;;;;;;;;;;;13.71;100.00;99421.84;4237745;33;19946;-73
2022/06/11 02:35:46;;;;;;;;;;;;;;;13.69;100.00;99418.59;4238958;33;19968;-73
2022/06/11 02:38:14;;;;;;;;;;;;;;;13.69;100.00;99424.00;4239439;33;19964;-73
2022/06/11 02:40:53;;;;;;;;;;;;;;;13.65;100.00;99422.88;4251404;33;19941;-73
2022/06/11 02:43:20;;;;;;;;;;;;;;;13.68;100.00;99429.69;4254755;33;20295;-73
2022/06/11 02:45:46;;;;;;;;;;;;;;;13.66;100.00;99429.94;4249385;33;20337;-73
2022/06/11 02:48:12;;;;;;;;;;;;;;;13.67;100.00;99431.53;4240119;33;19977;-73
2022/06/11 02:50:39;;;;;;;;;;;;;;;13.66;100.00;99424.53;4232556;33;19968;-72
2022/06/11 02:53:06;;;;;;;;;;;;;;;13.61;100.00;99432.59;4246490;33;20003;-73
2022/06/11 02:55:33;;;;;;;;;;;;;;;13.50;100.00;99425.47;4239321;33;20525;-73
2022/06/11 02:58:00;;;;;;;;;;;;;;;13.33;100.00;99426.44;4240220;33;19975;-73
2022/06/11 03:00:27;;;;;;;;;;;;;;;13.24;100.00;99433.34;4240161;33;20525;-73
2022/06/11 03:02:53;;;;;;;;;;;;;;;13.22;100.00;99430.91;4237940;33;19950;-73
2022/06/11 03:05:23;;;;;;;;;;;;;;;13.25;100.00;99424.19;4234314;33;19964;-73
2022/06/11 03:07:49;;;;;;;;;;;;;;;13.30;100.00;99431.50;4235360;33;19953;-74
2022/06/11 03:10:17;;;;;;;;;;;;;;;13.32;100.00;99429.34;4239649;33;19989;-73
2022/06/11 03:12:43;;;;;;;;;;;;;;;13.36;100.00;99425.91;4247227;33;19959;-73
2022/06/11 03:15:11;;;;;;;;;;;;;;;13.41;100.00;99428.66;4242515;33;19967;-74
2022/06/11 03:17:37;;;;;;;;;;;;;;;13.42;100.00;99424.88;4242025;33;19954;-73
2022/06/11 03:20:06;;;;;;;;;;;;;;;13.48;100.00;99438.44;4238830;33;19950;-73
2022/06/11 03:22:32;;;;;;;;;;;;;;;13.53;100.00;99435.78;4239298;33;19968;-73
2022/06/11 03:24:58;;;;;;;;;;;;;;;13.52;100.00;99439.56;4239050;33;19954;-73
2022/06/11 03:27:24;;;;;;;;;;;;;;;13.49;100.00;99438.19;4254060;33;19980;-73
2022/06/11 03:29:51;;;;;;;;;;;;;;;13.47;100.00;99436.84;4253384;33;19953;-73
2022/06/11 03:32:18;;;;;;;;;;;;;;;13.44;100.00;99438.97;4252979;33;19968;-74
2022/06/11 03:34:45;;;;;;;;;;;;;;;13.47;100.00;99434.94;4248497;33;19984;-73
2022/06/11 03:37:12;;;;;;;;;;;;;;;13.40;100.00;99432.44;4239384;33;20299;-73
2022/06/11 03:39:38;;;;;;;;;;;;;;;13.43;100.00;99431.94;4230555;33;20723;-73
2022/06/11 03:42:05;;;;;;;;;;;;;;;13.48;100.00;99443.84;4241779;33;19959;-74
2022/06/11 03:44:31;;;;;;;;;;;;;;;13.48;100.00;99443.84;4239223;33;20308;-73
2022/06/11 03:46:57;;;;;;;;;;;;;;;13.46;100.00;99441.41;4240983;33;19949;-74
2022/06/11 03:49:24;;;;;;;;;;;;;;;13.36;100.00;99425.91;4251334;33;19949;-73
2022/06/11 03:51:50;;;;;;;;;;;;;;;13.51;100.00;99443.34;4252689;33;20265;-73
2022/06/11 03:54:17;;;;;;;;;;;;;;;13.52;100.00;99440.38;4240480;33;20060;-73
2022/06/11 03:56:45;;;;;;;;;;;;;;;13.59;100.00;99445.56;4245718;33;19950;-73
2022/06/11 03:59:11;;;;;;;;;;;;;;;13.62;100.00;99439.63;4251737;33;19987;-73
2022/06/11 04:01:37;;;;;;;;;;;;;;;13.69;100.00;99442.94;4253116;33;19954;-73
2022/06/11 04:04:06;;;;;;;;;;;;;;;13.74;100.00;99437.56;4247929;33;19963;-73
2022/06/11 04:06:43;;;;;;;;;;;;;;;13.83;100.00;99439.78;4229482;33;20606;-73
2022/06/11 04:09:12;;;;;;;;;;;;;;;13.88;100.00;99440.62;4248995;33;19954;-73
2022/06/11 04:11:38;;;;;;;;;;;;;;;13.94;100.00;99442.28;4245544;33;19960;-73
2022/06/11 04:14:04;;;;;;;;;;;;;;;13.98;100.00;99453.41;4252699;33;19955;-73
2022/06/11 04:16:44;;;;;;;;;;;;;;;14.05;100.00;99443.16;4224769;33;20379;-73
2022/06/11 04:19:14;;;;;;;;;;;;;;;14.13;100.00;99450.78;4235693;33;19946;-73
2022/06/11 04:21:47;;;;;;;;;;;;;;;14.22;100.00;99447.59;4244149;33;19967;-73
2022/06/11 04:24:14;;;;;;;;;;;;;;;14.28;100.00;99441.09;4247314;33;19959;-72
2022/06/11 04:26:41;;;;;;;;;;;;;;;14.35;100.00;99442.47;4247294;33;19946;-72
2022/06/11 04:29:09;;;;;;;;;;;;;;;14.38;100.00;99440.34;4244757;33;20272;-73
2022/06/11 04:31:35;;;;;;;;;;;;;;;14.50;100.00;99449.03;4249224;33;19963;-73
2022/06/11 04:34:02;;;;;;;;;;;;;;;14.60;100.00;99443.72;4252765;33;19948;-73
2022/06/11 04:36:30;;;;;;;;;;;;;;;14.70;100.00;99449.16;4252949;33;19959;-73
2022/06/11 04:38:56;;;;;;;;;;;;;;;14.75;100.00;99445.63;4239418;33;19992;-73
2022/06/11 04:41:23;;;;;;;;;;;;;;;14.82;100.00;99446.22;4237796;33;19981;-73
2022/06/11 04:43:49;;;;;;;;;;;;;;;14.84;100.00;99445.94;4243684;33;19954;-73
2022/06/11 04:46:16;;;;;;;;;;;;;;;14.94;100.00;99447.84;4247658;33;19989;-73
2022/06/11 04:48:42;;;;;;;;;;;;;;;14.99;100.00;99450.56;4247220;33;19941;-72
2022/06/11 04:51:10;;;;;;;;;;;;;;;15.05;100.00;99454.94;4237077;33;19949;-73
2022/06/11 04:53:36;;;;;;;;;;;;;;;15.14;100.00;99458.75;4239185;33;20011;-73
2022/06/11 04:56:03;;;;;;;;;;;;;;;15.22;100.00;99460.91;4238746;33;19953;-72
2022/06/11 04:58:29;;;;;;;;;;;;;;;15.34;100.00;99459.84;4239754;33;20418;-72
2022/06/11 05:00:55;;;;;;;;;;;;;;;15.41;100.00;99452.22;4236932;33;20350;-72
2022/06/11 05:03:22;;;;;;;;;;;;;;;15.46;100.00;99454.97;4234651;33;19957;-73
2022/06/11 05:05:48;;;;;;;;;;;;;;;15.60;100.00;99466.91;4238086;33;20100;-72
2022/06/11 05:08:15;;;;;;;;;;;;;;;15.71;100.00;99461.47;4243140;33;19952;-72
2022/06/11 05:10:41;;;;;;;;;;;;;;;15.82;100.00;99463.09;4251255;33;19953;-73
2022/06/11 05:13:09;;;;;;;;;;;;;;;15.93;100.00;99464.72;4240525;33;19954;-73
2022/06/11 05:15:38;;;;;;;;;;;;;;;16.00;100.00;99469.03;4240348;33;19999;-73
2022/06/11 05:18:05;;;;;;;;;;;;;;;16.10;100.00;99474.47;4252873;33;19963;-73
2022/06/11 05:20:31;;;;;;;;;;;;;;;16.16;100.00;99476.06;4239322;33;19964;-73
2022/06/11 05:22:57;;;;;;;;;;;;;;;16.23;100.00;99467.66;4238885;33;20321;-73
2022/06/11 05:25:24;;;;;;;;;;;;;;;16.39;100.00;99471.12;4237626;33;20344;-77
2022/06/11 05:27:50;;;;;;;;;;;;;;;16.45;100.00;99470.00;4239123;33;19977;-74
2022/06/11 05:30:24;;;;;;;;;;;;;;;16.57;100.00;99478.66;4226521;33;19937;-73
2022/06/11 05:32:51;;;;;;;;;;;;;;;16.62;100.00;99481.34;4238863;33;19960;-73
2022/06/11 05:35:19;;;;;;;;;;;;;;;16.67;100.00;99484.06;4236662;33;20289;-72
2022/06/11 05:37:46;;;;;;;;;;;;;;;16.72;100.00;99485.94;4237600;33;20621;-73
2022/06/11 05:40:15;;;;;;;;;;;;;;;16.74;100.00;99482.91;4253185;33;19967;-73
2022/06/11 05:42:47;;;;;;;;;;;;;;;16.81;100.00;99488.88;4252932;33;19987;-73
2022/06/11 05:45:15;;;;;;;;;;;;;;;16.90;100.00;99492.66;4242983;33;19953;-73
2022/06/11 05:47:43;;;;;;;;;;;;;;;16.98;100.00;99492.06;4232352;33;19964;-73
2022/06/11 05:50:13;;;;;;;;;;;;;;;17.02;100.00;99489.59;4233659;33;19964;-73
2022/06/11 05:52:43;;;;;;;;;;;;;;;17.11;100.00;99492.56;4229469;33;19968;-72
2022/06/11 05:55:09;;;;;;;;;;;;;;;17.15;100.00;99499.03;4221489;33;19979;-73
2022/06/11 05:57:39;;;;;;;;;;;;;;;16.99;100.00;99485.56;4229772;33;20649;-73
2022/06/11 06:00:08;;;;;;;;;;;;;;;17.11;100.00;99487.12;4223655;34;20425;-73
2022/06/11 06:02:40;;;;;;;;;;;;;;;17.21;100.00;99487.03;4244553;33;20230;-71
2022/06/11 06:05:08;;;;;;;;;;;;;;;17.37;100.00;99491.25;4240388;33;19945;-72
2022/06/11 06:07:34;;;;;;;;;;;;;;;17.30;100.00;99484.53;4233783;33;20185;-72
2022/06/11 06:10:00;;;;;;;;;;;;;;;17.46;100.00;99498.84;4237507;33;19983;-72
2022/06/11 06:12:30;;;;;;;;;;;;;;;17.53;100.00;99494.69;4238558;33;19963;-71
2022/06/11 06:15:13;;;;;;;;;;;;;;;17.54;100.00;99503.69;4238339;33;19992;-73
2022/06/11 06:17:40;;;;;;;;;;;;;;;17.65;100.00;99502.50;4243062;33;19964;-72
2022/06/11 06:20:07;;;;;;;;;;;;;;;17.56;100.00;99501.47;4239299;33;19993;-72
2022/06/11 06:22:33;;;;;;;;;;;;;;;17.59;100.00;99509.88;4238611;33;19950;-73
2022/06/11 06:25:00;;;;;;;;;;;;;;;17.66;100.00;99504.09;4240522;33;20333;-72
2022/06/11 06:27:26;;;;;;;;;;;;;;;17.86;100.00;99507.78;4240972;33;20081;-71
2022/06/11 06:29:52;;;;;;;;;;;;;;;17.81;100.00;99502.38;4240785;33;19967;-71
2022/06/11 06:32:19;;;;;;;;;;;;;;;17.79;100.00;99506.19;4240836;33;19942;-71
2022/06/11 06:34:46;;;;;;;;;;;;;;;17.77;100.00;99505.66;4236856;33;20001;-73
2022/06/11 06:37:12;;;;;;;;;;;;;;;17.81;100.00;99521.44;4240843;33;20864;-70
2022/06/11 06:39:39;;;;;;;;;;;;;;;17.83;100.00;99514.59;4240547;33;20340;-71
2022/06/11 06:42:06;;;;;;;;;;;;;;;17.89;100.00;99516.22;4242330;33;19991;-71
2022/06/11 06:44:32;;;;;;;;;;;;;;;17.87;100.00;99525.72;4255026;33;19959;-71
2022/06/11 06:46:59;;;;;;;;;;;;;;;17.93;100.00;99511.00;4252506;33;19959;-72
2022/06/11 06:49:26;;;;;;;;;;;;;;;17.92;100.00;99507.47;4246906;33;20265;-72
2022/06/11 06:51:52;;;;;;;;;;;;;;;17.98;100.00;99505.50;4234002;33;19954;-72
2022/06/11 06:54:18;;;;;;;;;;;;;;;17.94;100.00;99509.91;4234705;33;19955;-72
2022/06/11 06:56:45;;;;;;;;;;;;;;;17.92;100.00;99512.13;4231983;33;19942;-72
2022/06/11 06:59:11;;;;;;;;;;;;;;;17.99;100.00;99507.13;4237980;33;19977;-72
2022/06/11 07:01:38;;;;;;;;;;;;;;;18.10;100.00;99519.56;4237592;33;19980;-71
2022/06/11 07:04:04;;;;;;;;;;;;;;;18.08;100.00;99516.31;4230448;33;19942;-72
2022/06/11 07:06:30;;;;;;;;;;;;;;;18.17;100.00;99512.94;4240843;33;19953;-71
2022/06/11 07:08:57;;;;;;;;;;;;;;;18.03;100.00;99524.53;4249846;33;20343;-72
2022/06/11 07:11:23;;;;;;;;;;;;;;;18.04;100.00;99517.97;4233381;33;19954;-73
2022/06/11 07:13:49;;;;;;;;;;;;;;;18.19;100.00;99521.66;4233490;33;20004;-73
2022/06/11 07:16:19;;;;;;;;;;;;;;;18.15;100.00;99521.41;4234181;33;19989;-73
2022/06/11 07:18:48;;;;;;;;;;;;;;;18.31;100.00;99519.34;4233765;33;20350;-71
2022/06/11 07:21:22;;;;;;;;;;;;;;;18.14;100.00;99526.06;4227981;33;19950;-72
2022/06/11 07:23:52;;;;;;;;;;;;;;;18.27;100.00;99523.75;4251249;33;19976;-71
2022/06/11 07:26:21;;;;;;;;;;;;;;;18.28;100.00;99530.81;4239421;33;19979;-70
2022/06/11 07:28:53;;;;;;;;;;;;;;;18.32;100.00;99538.13;4233615;33;19949;-72
2022/06/11 07:31:19;;;;;;;;;;;;;;;18.24;100.00;99537.97;4231984;33;20718;-72
2022/06/11 07:33:48;;;;;;;;;;;;;;;18.30;100.00;99548.53;4219588;33;19941;-72
2022/06/11 07:36:14;;;;;;;;;;;;;;;18.45;100.00;99533.91;4236668;33;19945;-72
2022/06/11 07:38:40;;;;;;;;;;;;;;;18.61;100.00;99540.00;4231936;33;19954;-72
2022/06/11 07:41:06;;;;;;;;;;;;;;;18.63;100.00;99536.97;4233231;33;19972;-72
2022/06/11 07:43:32;;;;;;;;;;;;;;;18.72;100.00;99546.16;4233768;33;20120;-71
2022/06/11 07:45:59;;;;;;;;;;;;;;;18.71;100.00;99533.59;4233009;33;19957;-72
2022/06/11 07:48:25;;;;;;;;;;;;;;;18.79;100.00;99541.13;4232923;33;20392;-72
2022/06/11 07:50:51;;;;;;;;;;;;;;;18.86;100.00;99540.84;4235337;33;19945;-73
2022/06/11 07:53:19;;;;;;;;;;;;;;;18.77;100.00;99548.81;4230044;33;20358;-73
2022/06/11 07:55:46;;;;;;;;;;;;;;;18.67;100.00;99544.28;4233469;33;20124;-73
2022/06/11 07:58:13;;;;;;;;;;;;;;;18.74;100.00;99543.94;4234902;33;19979;-73
2022/06/11 08:00:42;;;;;;;;;;;;;;;18.76;100.00;99552.63;4239801;33;19983;-74
2022/06/11 08:03:08;;;;;;;;;;;;;;;18.70;100.00;99553.81;4248317;33;20442;-73
2022/06/11 08:05:34;;;;;;;;;;;;;;;18.73;100.00;99547.78;4230729;33;20003;-71
2022/06/11 08:08:02;;;;;;;;;;;;;;;18.85;100.00;99545.47;4235034;33;20088;-73
2022/06/11 08:10:29;;;;;;;;;;;;;;;18.82;100.00;99550.66;4226691;33;19980;-71
2022/06/11 08:12:55;;;;;;;;;;;;;;;18.79;100.00;99552.06;4247597;33;20343;-74
2022/06/11 08:15:22;;;;;;;;;;;;;;;18.92;100.00;99544.31;4239343;33;19955;-71
2022/06/11 08:17:49;;;;;;;;;;;;;;;18.92;100.00;99544.31;4245854;33;20136;-71
2022/06/11 08:20:24;;;;;;;;;;;;;;;18.88;100.00;99542.16;4239380;33;19964;-72
2022/06/11 08:22:52;;;;;;;;;;;;;;;18.98;100.00;99548.59;4238342;33;19950;-73
2022/06/11 08:25:19;;;;;;;;;;;;;;;18.98;100.00;99537.69;4233152;33;20004;-73
2022/06/11 08:27:45;;;;;;;;;;;;;;;18.94;100.00;99528.44;4233249;33;19957;-73
2022/06/11 08:30:12;;;;;;;;;;;;;;;19.02;100.00;99533.28;4237062;33;19950;-72
2022/06/11 08:32:38;;;;;;;;;;;;;;;19.07;100.00;99535.91;4238322;33;19954;-72
2022/06/11 08:35:05;;;;;;;;;;;;;;;19.15;100.00;99526.25;4229749;33;19956;-73
2022/06/11 08:37:31;;;;;;;;;;;;;;;19.03;100.00;99530.25;4251043;33;20075;-72
2022/06/11 08:39:57;;;;;;;;;;;;;;;19.06;100.00;99528.81;4243465;33;19945;-72
2022/06/11 08:42:26;;;;;;;;;;;;;;;19.19;100.00;99530.00;4221510;33;19941;-72
2022/06/11 08:44:53;;;;;;;;;;;;;;;19.07;100.00;99527.72;4232422;33;19968;-73
2022/06/11 08:47:21;;;;;;;;;;;;;;;18.82;100.00;99466.91;4232673;33;19961;-72
2022/06/11 08:49:48;;;;;;;;;;;;;;;19.19;100.00;99522.66;4235227;33;19964;-72
2022/06/11 08:52:18;;;;;;;;;;;;;;;19.29;100.00;99523.59;4221548;33;20031;-72
2022/06/11 08:54:46;;;;;;;;;;;;;;;19.48;100.00;99535.34;4235203;33;19953;-73
2022/06/11 08:57:32;;;;;;;;;;;;;;;19.43;100.00;99535.37;4233316;33;19983;-72
2022/06/11 09:00:02;;;;;;;;;;;;;;;19.53;100.00;99531.69;4230319;33;20389;-72
2022/06/11 09:02:37;;;;;;;;;;;;;;;19.63;100.00;99541.66;4231252;33;19953;-73
2022/06/11 09:05:16;;;;;;;;;;;;;;;19.72;100.00;99539.88;4231344;33;20875;-73
2022/06/11 09:07:51;;;;;;;;;;;;;;;19.78;100.00;99539.53;4236514;33;20031;-72
2022/06/11 09:10:24;;;;;;;;;;;;;;;19.69;100.00;99524.91;4230203;33;19960;-73
2022/06/11 09:12:59;;;;;;;;;;;;;;;19.65;100.00;99531.25;4231598;33;20861;-72
2022/06/11 09:15:29;;;;;;;;;;;;;;;19.84;100.00;99526.59;4235618;33;19995;-72
2022/06/11 09:17:55;;;;;;;;;;;;;;;19.81;100.00;99532.66;4230748;33;20402;-72
2022/06/11 09:20:24;;;;;;;;;;;;;;;19.66;100.00;99524.69;4234093;33;19946;-72
2022/06/11 09:23:18;;;;;;;;;;;;;;;19.65;100.00;99523.06;4231236;33;19958;-72
2022/06/11 09:25:52;;;;;;;;;;;;;;;19.70;100.00;99522.97;4234933;33;19953;-73
2022/06/11 09:28:38;;;;;;;;;;;;;;;19.80;100.00;99524.75;4231245;33;19963;-72
2022/06/11 09:31:07;;;;;;;;;;;;;;;19.80;100.00;99524.75;4231430;33;19950;-72
2022/06/11 09:33:40;;;;;;;;;;;;;;;19.88;100.00;99535.81;4228682;33;19974;-72
2022/06/11 09:36:10;;;;;;;;;;;;;;;19.95;100.00;99521.75;4235834;33;19963;-72
2022/06/11 09:38:57;;;;;;;;;;;;;;;19.86;100.00;99521.63;4235742;33;20379;-72
2022/06/11 09:41:41;;;;;;;;;;;;;;;19.86;100.00;99524.34;4234828;33;19949;-73
2022/06/11 09:44:28;;;;;;;;;;;;;;;19.96;100.00;99518.72;4238160;33;20268;-73
2022/06/11 09:47:09;;;;;;;;;;;;;;;19.96;100.00;99526.94;4240515;33;19957;-72
2022/06/11 09:49:45;;;;;;;;;;;;;;;20.12;100.00;99526.66;4240215;33;19993;-72
2022/06/11 09:52:27;;;;;;;;;;;;;;;20.02;100.00;99521.37;4238577;33;19945;-73
2022/06/11 09:55:14;;;;;;;;;;;;;;;20.08;100.00;99515.50;4239922;33;20266;-73
2022/06/11 09:57:45;;;;;;;;;;;;;;;20.03;100.00;99510.12;4226729;33;20011;-74
2022/06/11 10:00:33;;;;;;;;;;;;;;;20.00;100.00;99509.94;4232716;33;19997;-73
2022/06/11 10:05:51;;;;;;;;;;;;;;;20.26;100.00;99511.09;4228456;33;20389;-72
2022/06/11 10:08:23;;;;;;;;;;;;;;;20.41;100.00;99509.19;4230922;33;19956;-73
2022/06/11 10:10:50;;;;;;;;;;;;;;;20.44;100.00;99505.84;4234180;33;19949;-73
2022/06/11 10:13:16;;;;;;;;;;;;;;;20.58;100.00;99506.63;4236557;33;19999;-73
2022/06/11 10:15:46;;;;;;;;;;;;;;;20.69;100.00;99507.25;4230788;33;19953;-73
2022/06/11 10:18:42;;;;;;;;;;;;;;;20.73;100.00;99507.47;4233642;33;19948;-82
2022/06/11 10:21:12;;;;;;;;;;;;;;;20.78;100.00;99504.63;4233870;33;19968;-74
2022/06/11 10:23:45;;;;;;;;;;;;;;;20.72;100.00;99508.56;4238044;33;19949;-73
2022/06/11 10:26:18;;;;;;;;;;;;;;;20.56;100.00;99503.38;4232883;33;19947;-73
2022/06/11 10:28:59;;;;;;;;;;;;;;;20.57;100.00;99510.47;4233069;33;19946;-74
2022/06/11 10:31:29;;;;;;;;;;;;;;;20.78;100.00;99499.16;4232484;33;19964;-72
2022/06/11 10:33:57;;;;;;;;;;;;;;;20.61;100.00;99500.53;4238865;33;19989;-74
2022/06/11 10:36:30;;;;;;;;;;;;;;;20.91;100.00;99498.31;4236298;33;19959;-72
2022/06/11 10:39:03;;;;;;;;;;;;;;;20.99;100.00;99522.22;4239019;33;19953;-72
2022/06/11 10:41:32;;;;;;;;;;;;;;;21.11;100.00;99507.19;4240774;33;20090;-72
2022/06/11 10:44:17;;;;;;;;;;;;;;;21.30;100.00;99494.16;4237540;33;19959;-72
2022/06/11 10:46:44;;;;;;;;;;;;;;;20.97;100.00;99502.56;4246249;33;19949;-75
2022/06/11 10:49:15;;;;;;;;;;;;;;;21.23;100.00;99510.19;4242584;33;19983;-73
2022/06/11 10:51:44;;;;;;;;;;;;;;;21.33;100.00;99498.19;4240456;33;19957;-73
2022/06/11 10:54:17;;;;;;;;;;;;;;;21.30;100.00;99496.91;4241346;33;19967;-74
2022/06/11 10:56:58;;;;;;;;;;;;;;;21.25;100.00;99496.19;4251122;33;19959;-73
2022/06/11 10:59:33;;;;;;;;;;;;;;;21.34;100.00;99492.41;4251877;33;19960;-73
2022/06/11 11:02:16;;;;;;;;;;;;;;;21.73;100.00;99490.94;4250511;33;20001;-72
2022/06/11 11:04:58;;;;;;;;;;;;;;;21.99;100.00;99487.53;4251346;33;19953;-72
2022/06/11 11:07:25;;;;;;;;;;;;;;;21.96;100.00;99488.16;4251829;33;19959;-73
2022/06/11 11:09:56;;;;;;;;;;;;;;;22.39;100.00;99501.31;4252794;33;19979;-74
2022/06/11 11:12:25;;;;;;;;;;;;;;;22.77;100.00;99495.28;4254598;33;19937;-73
2022/06/11 11:14:57;;;;;;;;;;;;;;;22.78;100.00;99479.59;4254509;33;19949;-73
2022/06/11 11:17:25;;;;;;;;;;;;;;;22.73;100.00;99483.31;4253303;33;19963;-72
2022/06/11 11:22:40;;;;;;;;;;;;;;;23.12;100.00;99494.53;4254598;33;19945;-72
2022/06/11 11:25:13;;;;;;;;;;;;;;;23.34;100.00;99488.06;4252251;33;20326;-72
2022/06/11 11:27:45;;;;;;;;;;;;;;;23.52;100.00;99481.44;4244109;33;19975;-73
2022/06/11 11:30:14;;;;;;;;;;;;;;;23.35;100.00;99481.47;4240161;33;20261;-73
2022/06/11 11:32:41;;;;;;;;;;;;;;;23.80;100.00;99475.56;4240035;33;19942;-72
2022/06/11 11:35:16;;;;;;;;;;;;;;;23.69;100.00;99474.28;4238022;33;19945;-72
2022/06/11 11:37:42;;;;;;;;;;;;;;;23.42;100.00;99487.25;4239747;33;20381;-72
2022/06/11 11:40:24;;;;;;;;;;;;;;;23.35;100.00;99481.47;4239905;33;19950;-72
2022/06/11 11:42:54;;;;;;;;;;;;;;;23.41;100.00;99480.16;4238047;33;19957;-71
2022/06/11 11:45:22;;;;;;;;;;;;;;;23.05;100.00;99484.00;4240195;33;19949;-72
2022/06/11 11:47:49;;;;;;;;;;;;;;;22.74;100.00;99476.69;4239743;33;19972;-72
2022/06/11 11:50:27;;;;;;;;;;;;;;;23.35;100.00;99467.72;4239050;33;20300;-72
2022/06/11 11:52:58;;;;;;;;;;;;;;;23.75;100.00;99482.03;4239104;33;19953;-72
2022/06/11 11:55:35;;;;;;;;;;;;;;;23.89;100.00;99473.63;4240076;33;19949;-72
2022/06/11 11:58:13;;;;;;;;;;;;;;;24.52;100.00;99470.28;4239604;33;19950;-72
2022/06/11 12:00:51;;;;;;;;;;;;;;;23.97;100.00;99473.94;4239424;33;19942;-72
2022/06/11 12:03:38;;;;;;;;;;;;;;;24.03;100.00;99472.59;4237622;33;19949;-72
2022/06/11 12:06:05;;;;;;;;;;;;;;;24.30;97.41;99477.69;4237671;33;19951;-72
2022/06/11 12:08:36;;;;;;;;;;;;;;;24.08;100.00;99480.69;4239747;33;19988;-72
2022/06/11 12:11:04;;;;;;;;;;;;;;;25.01;96.57;99478.91;4239924;33;19964;-73
2022/06/11 12:13:48;;;;;;;;;;;;;;;25.89;95.88;99472.63;4239558;33;19950;-72
2022/06/11 12:16:20;;;;;;;;;;;;;;;26.03;93.42;99470.38;4239746;33;20868;-72
2022/06/11 12:18:51;;;;;;;;;;;;;;;24.21;99.21;99462.38;4239113;33;19949;-72
2022/06/11 12:21:20;;;;;;;;;;;;;;;23.68;100.00;99475.44;4239069;33;19953;-73
2022/06/11 12:24:08;;;;;;;;;;;;;;;24.18;100.00;99469.31;4237890;33;20261;-72
2022/06/11 12:26:37;;;;;;;;;;;;;;;25.20;100.00;99469.38;4225648;34;19960;-71
2022/06/11 12:29:22;;;;;;;;;;;;;;;24.72;100.00;99463.25;4224248;33;19945;-73
2022/06/11 12:31:49;;;;;;;;;;;;;;;24.48;100.00;99469.34;4239287;33;20434;-71
2022/06/11 12:34:16;;;;;;;;;;;;;;;24.83;100.00;99466.41;4239378;33;19946;-72
2022/06/11 12:36:45;;;;;;;;;;;;;;;24.58;100.00;99463.47;4238428;33;19968;-73
2022/06/11 12:39:30;;;;;;;;;;;;;;;24.70;100.00;99468.28;4239208;33;20306;-72
2022/06/11 12:42:03;;;;;;;;;;;;;;;24.80;100.00;99472.59;4239214;33;19963;-72
2022/06/11 12:44:32;;;;;;;;;;;;;;;24.78;100.00;99469.34;4237862;33;19954;-73
2022/06/11 12:47:01;;;;;;;;;;;;;;;25.22;99.64;99464.31;4239807;33;20176;-72
2022/06/11 12:49:46;;;;;;;;;;;;;;;25.91;100.00;99462.03;4238788;33;19960;-72
2022/06/11 12:52:12;;;;;;;;;;;;;;;25.71;94.09;99456.25;4235878;33;19967;-72
2022/06/11 12:54:47;;;;;;;;;;;;;;;25.56;94.90;99460.47;4239195;33;19953;-73
2022/06/11 12:57:23;;;;;;;;;;;;;;;25.67;93.24;99460.84;4239259;33;19937;-72
2022/06/11 13:00:11;;;;;;;;;;;;;;;25.31;98.08;99464.28;4238439;33;20336;-73